createdAt,value
2022-08-07T00:00:25.778Z,99951.75
2022-08-07T00:02:53.929Z,99952.34
2022-08-07T00:05:23.758Z,99946.09
2022-08-07T00:07:59.778Z,99953.38
2022-08-07T00:10:30.580Z,99946.69
2022-08-07T00:13:09.872Z,99952.94
2022-08-07T00:15:51.268Z,99949.88
2022-08-07T00:18:24.549Z,99949.88
2022-08-07T00:21:01.926Z,99949.50
2022-08-07T00:23:31.777Z,99944.75
2022-08-07T00:26:18.886Z,99942.25
2022-08-07T00:28:56.428Z,99931.44
2022-08-07T00:31:37.397Z,99937.22
2022-08-07T00:34:08.801Z,99941.81
2022-08-07T00:36:42.705Z,99947.34
2022-08-07T00:39:12.863Z,99952.47
2022-08-07T00:42:01.728Z,99946.50
2022-08-07T00:44:35.070Z,99938.97
2022-08-07T00:47:15.627Z,99940.03
2022-08-07T00:50:20.271Z,99943.75
2022-08-07T00:52:47.288Z,99937.09
2022-08-07T00:55:17.242Z,99948.75
2022-08-07T00:57:55.776Z,99949.47
2022-08-07T01:00:23.745Z,99937.03
2022-08-07T01:02:51.759Z,99931.56
2022-08-07T01:05:19.984Z,99933.81
2022-08-07T01:07:52.304Z,99929.00
2022-08-07T01:10:20.804Z,99937.56
2022-08-07T01:12:53.553Z,99937.72
2022-08-07T01:15:35.996Z,99934.84
2022-08-07T01:18:10.946Z,99936.16
2022-08-07T01:20:57.342Z,99935.97
2022-08-07T01:23:38.006Z,99938.81
2022-08-07T01:26:08.319Z,99931.31
2022-08-07T01:28:46.071Z,99936.84
2022-08-07T01:31:17.943Z,99939.78
2022-08-07T01:33:53.544Z,99924.75
2022-08-07T01:36:33.587Z,99926.66
2022-08-07T01:39:09.441Z,99918.06
2022-08-07T01:41:55.066Z,99919.09
2022-08-07T01:44:27.458Z,99920.62
2022-08-07T01:46:55.481Z,99927.91
2022-08-07T01:49:24.232Z,99930.88
2022-08-07T01:52:03.652Z,99932.00
2022-08-07T01:54:36.783Z,99934.84
2022-08-07T01:57:08.457Z,99924.16
2022-08-07T01:59:43.821Z,99930.34
2022-08-07T02:02:32.976Z,99930.38
2022-08-07T02:05:06.621Z,99922.41
2022-08-07T02:07:49.967Z,99925.09
2022-08-07T02:10:22.196Z,99939.22
2022-08-07T02:12:50.473Z,99931.19
2022-08-07T02:15:21.300Z,99940.03
2022-08-07T02:17:51.988Z,99932.75
2022-08-07T02:20:23.815Z,99946.84
2022-08-07T02:22:55.330Z,99939.56
2022-08-07T02:26:10.110Z,99950.44
2022-08-07T02:28:11.668Z,99949.53
2022-08-07T02:30:39.779Z,99955.03
2022-08-07T02:33:10.447Z,99952.59
2022-08-07T02:36:29.408Z,99950.22
2022-08-07T02:38:31.784Z,99947.78
2022-08-07T02:41:00.942Z,99953.44
2022-08-07T02:43:32.159Z,99949.91
2022-08-07T02:46:02.116Z,99961.75
2022-08-07T02:48:30.939Z,99953.59
2022-08-07T02:50:59.925Z,99958.13
2022-08-07T02:53:38.337Z,99962.91
2022-08-07T02:56:13.063Z,99965.84
2022-08-07T02:58:53.953Z,99955.75
2022-08-07T03:01:35.510Z,99947.41
2022-08-07T03:04:07.625Z,99955.31
2022-08-07T03:06:44.830Z,99948.37
2022-08-07T03:09:14.059Z,99947.37
2022-08-07T03:11:52.662Z,99940.75
2022-08-07T03:14:26.392Z,99944.62
2022-08-07T03:16:56.559Z,99951.03
2022-08-07T03:19:24.408Z,99951.59
2022-08-07T03:21:57.318Z,99946.59
2022-08-07T03:24:28.066Z,99945.44
2022-08-07T03:26:59.724Z,99949.22
2022-08-07T03:29:37.388Z,99952.03
2022-08-07T03:32:08.311Z,99946.44
2022-08-07T03:34:39.123Z,99951.97
2022-08-07T03:37:12.441Z,99950.31
2022-08-07T03:39:46.393Z,99948.59
2022-08-07T03:42:27.631Z,99948.84
2022-08-07T03:44:57.942Z,99943.62
2022-08-07T03:47:27.938Z,99948.22
2022-08-07T03:49:57.748Z,99956.00
2022-08-07T03:52:27.453Z,99961.84
2022-08-07T03:55:07.360Z,99966.06
2022-08-07T03:58:33.366Z,99962.94
2022-08-07T04:00:30.403Z,99961.03
2022-08-07T04:03:04.439Z,99972.31
2022-08-07T04:05:40.163Z,99975.94
2022-08-07T04:08:11.386Z,99979.56
2022-08-07T04:10:42.590Z,99989.09
2022-08-07T04:13:24.337Z,99991.44
2022-08-07T04:15:55.708Z,99982.50
2022-08-07T04:18:57.519Z,99990.00
2022-08-07T04:21:12.903Z,99994.28
2022-08-07T04:24:07.378Z,99994.91
2022-08-07T04:26:32.013Z,100002.75
2022-08-07T04:29:00.374Z,100013.78
2022-08-07T04:31:38.851Z,100008.88
2022-08-07T04:34:23.907Z,100002.09
2022-08-07T04:36:51.788Z,100005.94
2022-08-07T04:39:25.870Z,100003.47
2022-08-07T04:41:54.159Z,100007.31
2022-08-07T04:44:21.901Z,100005.81
2022-08-07T04:47:07.811Z,100010.78
2022-08-07T04:50:03.721Z,100008.22
2022-08-07T04:52:51.201Z,100008.81
2022-08-07T04:58:10.234Z,100014.94
2022-08-07T05:00:09.419Z,100014.66
2022-08-07T05:02:16.914Z,100008.84
2022-08-07T05:05:11.506Z,100003.06
2022-08-07T05:08:12.492Z,100005.03
2022-08-07T05:10:45.732Z,100008.44
2022-08-07T05:14:52.166Z,100001.09
2022-08-07T05:16:12.450Z,100016.19
2022-08-07T05:18:53.717Z,100010.47
2022-08-07T05:22:00.106Z,100019.63
2022-08-07T05:24:12.312Z,100021.28
2022-08-07T05:26:39.980Z,100019.87
2022-08-07T05:29:08.153Z,100029.28
2022-08-07T05:31:38.630Z,100033.09
2022-08-07T05:34:12.234Z,100025.41
2022-08-07T05:36:42.053Z,100027.09
2022-08-07T05:40:13.629Z,100027.47
2022-08-07T05:42:02.762Z,100031.34
2022-08-07T05:44:34.472Z,100029.84
2022-08-07T05:47:18.395Z,100027.66
2022-08-07T05:49:49.934Z,100040.34
2022-08-07T05:52:32.187Z,100031.19
2022-08-07T05:55:07.238Z,100027.28
2022-08-07T05:57:41.949Z,100020.88
2022-08-07T06:00:16.628Z,100028.62
2022-08-07T06:02:48.265Z,100027.63
2022-08-07T06:05:16.101Z,100022.50
2022-08-07T06:08:09.183Z,100034.47
2022-08-07T06:10:32.053Z,100022.00
2022-08-07T06:13:02.282Z,100029.47
2022-08-07T06:15:39.068Z,100030.50
2022-08-07T06:18:12.356Z,100019.75
2022-08-07T06:20:49.604Z,100034.34
2022-08-07T06:23:45.812Z,100041.31
2022-08-07T06:26:07.668Z,100042.34
2022-08-07T06:28:55.483Z,100038.22
2022-08-07T06:31:24.310Z,100044.72
2022-08-07T06:34:11.098Z,100041.28
2022-08-07T06:36:40.977Z,100034.91
2022-08-07T06:40:15.952Z,100038.22
2022-08-07T06:42:03.475Z,100042.28
2022-08-07T06:44:36.627Z,100046.69
2022-08-07T06:47:12.552Z,100052.66
2022-08-07T06:49:51.721Z,100063.44
2022-08-07T06:52:31.325Z,100065.91
2022-08-07T06:55:34.101Z,100073.03
2022-08-07T06:58:12.620Z,100066.88
2022-08-07T07:00:42.389Z,100066.34
2022-08-07T07:03:13.746Z,100077.41
2022-08-07T07:06:04.187Z,100066.22
2022-08-07T07:08:30.211Z,100062.34
2022-08-07T07:10:59.111Z,100065.25
2022-08-07T07:13:55.638Z,100056.41
2022-08-07T07:16:28.959Z,100055.59
2022-08-07T07:19:11.401Z,100057.34
2022-08-07T07:22:05.454Z,100056.12
2022-08-07T07:24:36.211Z,100061.19
2022-08-07T07:27:04.786Z,100064.06
2022-08-07T07:29:56.258Z,100065.50
2022-08-07T07:32:23.780Z,100055.03
2022-08-07T07:34:53.643Z,100052.31
2022-08-07T07:37:45.337Z,100057.37
2022-08-07T07:40:15.311Z,100057.50
2022-08-07T07:42:47.127Z,100044.19
2022-08-07T07:45:19.547Z,100039.50
2022-08-07T07:47:53.262Z,100042.06
2022-08-07T07:50:35.718Z,100043.53
2022-08-07T07:53:20.483Z,100032.84
2022-08-07T07:55:57.729Z,100039.97
2022-08-07T07:58:40.316Z,100033.63
2022-08-07T08:02:00.961Z,100027.78
2022-08-07T08:04:09.572Z,100038.16
2022-08-07T08:06:51.973Z,100033.56
2022-08-07T08:09:23.288Z,100042.22
2022-08-07T08:12:01.604Z,100041.16
2022-08-07T08:14:36.437Z,100036.97
2022-08-07T08:17:55.361Z,100041.44
2022-08-07T08:20:19.385Z,100035.06
2022-08-07T08:23:09.409Z,100042.00
2022-08-07T08:25:56.762Z,100032.34
2022-08-07T08:28:38.172Z,100035.34
2022-08-07T08:31:16.423Z,100020.03
2022-08-07T08:33:55.720Z,100024.72
2022-08-07T08:36:29.551Z,100018.06
2022-08-07T08:39:00.014Z,100020.00
2022-08-07T08:41:58.750Z,100018.09
2022-08-07T08:44:44.268Z,100016.50
2022-08-07T08:47:26.505Z,100014.16
2022-08-07T08:50:18.977Z,99998.09
2022-08-07T08:53:04.933Z,99998.03
2022-08-07T08:55:54.649Z,99998.53
2022-08-07T08:58:34.765Z,99988.84
2022-08-07T09:01:15.023Z,99994.09
2022-08-07T09:03:56.682Z,99999.75
2022-08-07T09:06:48.017Z,99991.31
2022-08-07T09:09:36.586Z,100000.91
2022-08-07T09:12:30.681Z,99989.09
2022-08-07T09:16:22.880Z,99998.38
2022-08-07T09:18:22.446Z,100002.09
2022-08-07T09:21:57.749Z,99999.22
2022-08-07T09:24:55.017Z,99993.16
2022-08-07T09:28:00.483Z,99999.72
2022-08-07T09:31:06.537Z,100003.72
2022-08-07T09:34:07.812Z,99999.72
2022-08-07T09:36:51.378Z,99999.16
2022-08-07T09:39:55.594Z,99994.13
2022-08-07T09:43:08.648Z,99988.88
2022-08-07T09:47:51.123Z,100002.16
2022-08-07T09:50:01.948Z,99998.34
2022-08-07T09:52:16.092Z,99990.06
2022-08-07T09:54:59.365Z,99990.44
2022-08-07T09:57:36.684Z,99988.06
2022-08-07T10:00:16.557Z,99978.75
2022-08-07T10:02:56.302Z,99976.25
2022-08-07T10:05:59.418Z,99985.75
2022-08-07T10:08:59.543Z,99969.44
2022-08-07T10:12:01.259Z,99967.22
2022-08-07T10:14:41.983Z,99968.81
2022-08-07T10:17:24.281Z,99974.56
2022-08-07T10:20:14.649Z,99968.91
2022-08-07T10:23:11.827Z,99959.09
2022-08-07T10:26:10.712Z,99961.63
2022-08-07T10:29:15.819Z,99944.06
2022-08-07T10:32:35.729Z,99948.88
2022-08-07T10:35:12.414Z,99936.44
2022-08-07T10:38:21.478Z,99950.44
2022-08-07T10:40:56.554Z,99943.62
2022-08-07T10:43:34.111Z,99959.94
2022-08-07T10:46:26.744Z,99950.03
2022-08-07T10:49:24.722Z,99944.09
2022-08-07T10:52:13.302Z,99941.31
2022-08-07T10:55:02.065Z,99933.69
2022-08-07T10:57:56.391Z,99942.94
2022-08-07T11:00:36.823Z,99941.28
2022-08-07T11:03:52.829Z,99935.97
2022-08-07T11:06:42.074Z,99935.03
2022-08-07T11:10:08.919Z,99936.41
2022-08-07T11:12:14.581Z,99923.78
2022-08-07T11:15:14.599Z,99909.19
2022-08-07T11:17:56.953Z,99911.28
2022-08-07T11:20:37.803Z,99914.06
2022-08-07T11:23:38.425Z,99902.34
2022-08-07T11:26:48.114Z,99907.72
2022-08-07T11:30:18.471Z,99903.19
2022-08-07T11:32:55.657Z,99907.13
2022-08-07T11:35:28.137Z,99906.59
2022-08-07T11:37:57.847Z,99914.50
2022-08-07T11:40:57.924Z,99913.78
2022-08-07T11:43:54.398Z,99912.03
2022-08-07T11:46:28.595Z,99902.59
2022-08-07T11:49:51.155Z,99898.06
2022-08-07T11:53:05.176Z,99891.78
2022-08-07T11:56:20.453Z,99900.00
2022-08-07T11:58:59.892Z,99886.81
2022-08-07T12:01:59.660Z,99890.84
2022-08-07T12:04:34.142Z,99887.22
2022-08-07T12:07:27.527Z,99883.97
2022-08-07T12:10:09.412Z,99878.53
2022-08-07T12:12:42.856Z,99878.81
2022-08-07T12:15:17.260Z,99887.53
2022-08-07T12:18:11.441Z,99879.31
2022-08-07T12:20:46.352Z,99867.53
2022-08-07T12:24:06.329Z,99876.34
2022-08-07T12:26:29.896Z,99873.63
2022-08-07T12:29:16.132Z,99868.28
2022-08-07T12:32:23.952Z,99868.34
2022-08-07T12:34:55.704Z,99852.47
2022-08-07T12:37:28.249Z,99854.13
2022-08-07T12:40:44.908Z,99854.78
2022-08-07T12:43:01.796Z,99852.09
2022-08-07T12:45:35.634Z,99845.94
2022-08-07T12:48:53.038Z,99841.41
2022-08-07T12:51:46.397Z,99836.56
2022-08-07T12:54:54.731Z,99837.69
2022-08-07T12:57:27.266Z,99844.94
2022-08-07T13:00:20.969Z,99833.81
2022-08-07T13:03:26.857Z,99834.94
2022-08-07T13:06:21.588Z,99830.59
2022-08-07T13:10:21.437Z,99834.84
2022-08-07T13:12:43.276Z,99827.06
2022-08-07T13:15:38.530Z,99821.09
2022-08-07T13:18:09.008Z,99826.72
2022-08-07T13:20:44.625Z,99831.84
2022-08-07T13:24:01.751Z,99817.34
2022-08-07T13:26:46.253Z,99822.66
2022-08-07T13:29:23.920Z,99819.72
2022-08-07T13:32:31.333Z,99831.88
2022-08-07T13:34:58.461Z,99824.75
2022-08-07T13:37:29.581Z,99821.59
2022-08-07T13:40:35.354Z,99812.53
2022-08-07T13:43:12.026Z,99808.22
2022-08-07T13:46:11.577Z,99799.44
2022-08-07T13:48:35.087Z,99798.56
2022-08-07T13:51:27.397Z,99798.94
2022-08-07T13:54:01.975Z,99797.63
2022-08-07T13:56:40.701Z,99796.63
2022-08-07T13:59:24.467Z,99788.06
2022-08-07T14:02:03.513Z,99791.28
2022-08-07T14:04:35.631Z,99789.59
2022-08-07T14:07:09.505Z,99784.06
2022-08-07T14:10:01.297Z,99779.37
2022-08-07T14:12:55.698Z,99776.44
2022-08-07T14:15:40.555Z,99776.19
2022-08-07T14:18:29.008Z,99780.37
2022-08-07T14:22:00.582Z,99767.53
2022-08-07T14:24:03.777Z,99772.25
2022-08-07T14:26:50.380Z,99773.50
2022-08-07T14:30:05.561Z,99760.69
2022-08-07T14:32:13.234Z,99771.63
2022-08-07T14:34:45.482Z,99767.97
2022-08-07T14:37:16.987Z,99768.06
2022-08-07T14:40:17.846Z,99755.69
2022-08-07T14:42:35.562Z,99764.06
2022-08-07T14:45:47.111Z,99754.84
2022-08-07T14:48:20.395Z,99754.28
2022-08-07T14:50:58.597Z,99760.13
2022-08-07T14:56:29.526Z,99751.25
2022-08-07T14:59:01.246Z,99749.94
2022-08-07T15:01:42.864Z,99737.44
2022-08-07T15:04:19.070Z,99749.84
2022-08-07T15:06:47.581Z,99744.88
2022-08-07T15:09:59.647Z,99744.56
2022-08-07T15:13:05.887Z,99739.63
2022-08-07T15:15:09.276Z,99738.50
2022-08-07T15:20:55.172Z,99727.63
2022-08-07T15:25:16.168Z,99731.00
2022-08-07T15:26:22.616Z,99739.69
2022-08-07T15:28:59.456Z,99720.75
2022-08-07T15:31:57.765Z,99723.59
2022-08-07T15:34:26.254Z,99726.69
2022-08-07T15:39:57.740Z,99724.38
2022-08-07T15:42:48.263Z,99716.50
2022-08-07T15:45:22.628Z,99719.09
2022-08-07T15:48:01.297Z,99717.63
2022-08-07T15:51:01.425Z,99719.78
2022-08-07T15:53:51.730Z,99719.78
2022-08-07T15:56:15.674Z,99716.53
2022-08-07T15:58:52.180Z,99712.78
2022-08-07T16:01:43.751Z,99713.47
2022-08-07T16:04:31.343Z,99712.03
2022-08-07T16:07:00.412Z,99717.31
2022-08-07T16:09:42.241Z,99714.69
2022-08-07T16:13:01.115Z,99717.13
2022-08-07T16:15:57.285Z,99720.28
2022-08-07T16:18:50.109Z,99719.66
2022-08-07T16:21:44.113Z,99730.72
2022-08-07T16:24:33.682Z,99714.00
2022-08-07T16:27:17.826Z,99718.59
2022-08-07T16:30:31.509Z,99718.97
2022-08-07T16:34:02.722Z,99723.53
2022-08-07T16:36:31.504Z,99728.91
2022-08-07T16:39:04.988Z,99730.12
2022-08-07T16:41:41.485Z,99724.56
2022-08-07T16:45:04.117Z,99731.03
2022-08-07T16:47:56.635Z,99731.53
2022-08-07T16:51:13.383Z,99726.75
2022-08-07T16:54:09.708Z,99732.09
2022-08-07T16:57:01.667Z,99725.88
2022-08-07T16:59:46.356Z,99731.56
2022-08-07T17:02:51.588Z,99735.88
2022-08-07T17:06:01.526Z,99725.78
2022-08-07T17:09:04.276Z,99726.53
2022-08-07T17:12:03.934Z,99730.75
2022-08-07T17:14:36.223Z,99735.31
2022-08-07T17:17:06.830Z,99739.50
2022-08-07T17:20:00.738Z,99737.97
2022-08-07T17:22:48.630Z,99736.84
2022-08-07T17:25:20.162Z,99739.06
2022-08-07T17:28:14.021Z,99737.19
2022-08-07T17:30:57.981Z,99732.03
2022-08-07T17:34:10.194Z,99726.34
2022-08-07T17:36:26.017Z,99727.69
2022-08-07T17:39:10.069Z,99727.19
2022-08-07T17:42:02.187Z,99736.75
2022-08-07T17:44:45.646Z,99741.28
2022-08-07T17:47:38.046Z,99747.31
2022-08-07T17:50:30.498Z,99747.19
2022-08-07T17:54:01.474Z,99747.47
2022-08-07T17:56:28.651Z,99748.19
2022-08-07T17:58:57.315Z,99752.47
2022-08-07T18:01:36.260Z,99755.28
2022-08-07T18:04:30.830Z,99761.09
2022-08-07T18:07:20.881Z,99761.59
2022-08-07T18:10:09.921Z,99771.34
2022-08-07T18:12:51.282Z,99776.81
2022-08-07T18:15:32.737Z,99777.03
2022-08-07T18:18:45.569Z,99778.13
2022-08-07T18:21:42.212Z,99779.16
2022-08-07T18:24:34.479Z,99780.44
2022-08-07T18:27:17.374Z,99783.94
2022-08-07T18:30:07.818Z,99788.72
2022-08-07T18:32:54.742Z,99785.44
2022-08-07T18:35:52.027Z,99794.66
2022-08-07T18:38:56.754Z,99801.03
2022-08-07T18:42:13.065Z,99806.12
2022-08-07T18:45:44.467Z,99814.91
2022-08-07T18:48:00.759Z,99814.47
2022-08-07T18:50:47.115Z,99819.50
2022-08-07T18:53:39.231Z,99821.62
2022-08-07T18:56:14.068Z,99818.69
2022-08-07T18:58:56.769Z,99828.53
2022-08-07T19:02:18.384Z,99821.41
2022-08-07T19:04:57.712Z,99836.09
2022-08-07T19:07:56.865Z,99836.09
2022-08-07T19:10:49.657Z,99834.84
2022-08-07T19:13:27.475Z,99845.00
2022-08-07T19:16:43.537Z,99850.97
2022-08-07T19:19:38.907Z,99864.59
2022-08-07T19:22:36.123Z,99879.28
2022-08-07T19:25:05.475Z,99881.75
2022-08-07T19:28:58.224Z,99881.91
2022-08-07T19:31:00.840Z,99890.56
2022-08-07T19:33:15.635Z,99887.03
2022-08-07T19:35:47.109Z,99893.09
2022-08-07T19:38:16.659Z,99899.41
2022-08-07T19:40:49.891Z,99891.34
2022-08-07T19:43:43.990Z,99898.75
2022-08-07T19:46:10.033Z,99900.16
2022-08-07T19:48:42.265Z,99904.81
2022-08-07T19:51:20.446Z,99902.19
2022-08-07T19:54:32.104Z,99906.81
2022-08-07T19:57:52.182Z,99916.22
2022-08-07T19:59:39.949Z,99915.56
2022-08-07T20:02:19.835Z,99916.94
2022-08-07T20:04:50.087Z,99914.44
2022-08-07T20:07:23.412Z,99918.13
2022-08-07T20:10:36.538Z,99917.69
2022-08-07T20:12:42.157Z,99913.66
2022-08-07T20:15:15.843Z,99918.97
2022-08-07T20:18:01.557Z,99919.81
2022-08-07T20:20:32.894Z,99914.31
2022-08-07T20:23:11.060Z,99926.59
2022-08-07T20:25:54.474Z,99924.66
2022-08-07T20:28:29.664Z,99929.69
2022-08-07T20:30:58.250Z,99930.03
2022-08-07T20:33:36.701Z,99930.91
2022-08-07T20:36:09.796Z,99932.56
2022-08-07T20:39:00.124Z,99936.03
2022-08-07T20:41:27.709Z,99940.81
2022-08-07T20:44:01.235Z,99943.56
2022-08-07T20:46:33.480Z,99936.12
2022-08-07T20:49:59.540Z,99941.09
2022-08-07T20:51:51.185Z,99925.28
2022-08-07T20:54:30.174Z,99921.72
2022-08-07T20:57:01.861Z,99928.22
2022-08-07T21:00:04.458Z,99930.97
2022-08-07T21:02:40.127Z,99923.56
2022-08-07T21:05:16.368Z,99922.75
2022-08-07T21:07:48.982Z,99927.13
2022-08-07T21:10:29.617Z,99932.34
2022-08-07T21:13:00.790Z,99932.06
2022-08-07T21:15:48.044Z,99936.97
2022-08-07T21:18:33.306Z,99944.09
2022-08-07T21:21:01.102Z,99959.91
2022-08-07T21:23:52.286Z,99955.56
2022-08-07T21:26:55.986Z,99950.38
2022-08-07T21:29:33.713Z,99946.84
2022-08-07T21:32:48.103Z,99956.91
2022-08-07T21:35:07.995Z,99952.28
2022-08-07T21:38:00.293Z,99950.94
2022-08-07T21:40:36.050Z,99953.03
2022-08-07T21:43:11.052Z,99959.34
2022-08-07T21:46:10.554Z,99960.97
2022-08-07T21:48:42.639Z,99971.37
2022-08-07T21:51:27.471Z,99963.09
2022-08-07T21:54:12.306Z,99964.53
2022-08-07T21:57:30.793Z,99967.47
2022-08-07T22:00:22.780Z,99976.22
2022-08-07T22:03:16.837Z,99980.53
2022-08-07T22:06:01.091Z,99981.75
2022-08-07T22:08:39.316Z,99980.28
2022-08-07T22:11:06.758Z,99980.88
2022-08-07T22:13:52.275Z,99985.09
2022-08-07T22:16:39.162Z,99976.72
2022-08-07T22:19:31.056Z,99982.16
2022-08-07T22:22:20.775Z,99978.69
2022-08-07T22:24:56.964Z,99981.47
2022-08-07T22:28:01.256Z,99981.47
2022-08-07T22:30:16.156Z,99981.97
2022-08-07T22:32:52.828Z,99994.00
2022-08-07T22:35:23.350Z,99985.03
2022-08-07T22:38:24.344Z,99990.72
2022-08-07T22:41:00.027Z,99996.06
2022-08-07T22:43:36.752Z,99992.38
2022-08-07T22:46:46.915Z,99993.59
2022-08-07T22:49:37.698Z,99995.59
2022-08-07T22:52:19.533Z,100002.03
2022-08-07T22:55:34.657Z,100006.75
2022-08-07T22:58:28.014Z,100008.06
2022-08-07T23:01:06.187Z,100005.94
2022-08-07T23:03:58.530Z,100009.59
2022-08-07T23:06:55.030Z,100022.00
2022-08-07T23:10:05.321Z,100025.62
2022-08-07T23:12:41.674Z,100029.84
2022-08-07T23:16:06.591Z,100024.97
2022-08-07T23:19:17.579Z,100028.13
2022-08-07T23:22:26.806Z,100020.03
2022-08-07T23:25:19.114Z,100017.31
2022-08-07T23:28:22.647Z,100021.44
2022-08-07T23:31:43.000Z,100017.16
2022-08-07T23:34:47.220Z,100022.84
2022-08-07T23:37:22.461Z,100030.37
2022-08-07T23:39:56.258Z,100034.00
2022-08-07T23:43:07.632Z,100035.56
2022-08-07T23:46:03.772Z,100032.34
2022-08-07T23:49:13.688Z,100037.94
2022-08-07T23:53:05.382Z,100032.78
2022-08-07T23:54:46.855Z,100029.97
2022-08-07T23:57:41.209Z,100015.94
